Time;durP1;ratioP1;P1;durP2;ratioP2;P2;SDS_P1;SDS_P2;PMS_P1;PMS_P2;Temp;Humidity;BMP_temperature;BMP_pressure;BME280_temperature;BME280_humidity;BME280_pressure;Samples;Min_cycle;Max_cycle;Signal;HPM_P1;HPM_P2
2021/11/20 00:02:25;;;;;;;38.58;13.45;;;;;;;;;;5106376;28;20035;-67
2021/11/20 00:04:51;;;;;;;32.10;14.98;;;;;;;;;;5108985;28;20043;-67
2021/11/20 00:07:18;;;;;;;38.70;13.32;;;;;;;;;;5109301;28;20154;-67
2021/11/20 00:09:44;;;;;;;36.55;15.15;;;;;;;;;;5107126;28;20297;-66
2021/11/20 00:12:13;;;;;;;34.80;14.77;;;;;;;;;;5108608;28;20048;-68
2021/11/20 00:14:39;;;;;;;45.08;14.93;;;;;;;;;;5096978;28;21828;-68
2021/11/20 00:17:06;;;;;;;24.02;13.13;;;;;;;;;;5099369;28;20048;-67
2021/11/20 00:19:33;;;;;;;27.67;15.23;;;;;;;;;;5101098;28;20548;-68
2021/11/20 00:22:08;;;;;;;35.13;15.33;;;;;;;;;;5099243;28;20040;-68
2021/11/20 00:24:34;;;;;;;35.97;14.73;;;;;;;;;;5099059;28;20485;-67
2021/11/20 00:27:01;;;;;;;31.25;13.77;;;;;;;;;;5113779;28;20043;-67
2021/11/20 00:29:38;;;;;;;37.85;15.75;;;;;;;;;;5118063;28;20052;-67
2021/11/20 00:32:10;;;;;;;31.35;15.40;;;;;;;;;;5093273;28;20048;-67
2021/11/20 00:34:38;;;;;;;35.78;16.17;;;;;;;;;;5107859;28;20047;-67
2021/11/20 00:37:04;;;;;;;35.38;16.95;;;;;;;;;;5108013;28;20085;-67
2021/11/20 00:39:31;;;;;;;38.38;15.85;;;;;;;;;;5117892;28;20052;-67
2021/11/20 00:41:57;;;;;;;54.13;17.75;;;;;;;;;;5105943;28;20051;-67
2021/11/20 00:44:24;;;;;;;38.55;17.13;;;;;;;;;;5109038;28;20054;-68
2021/11/20 00:46:50;;;;;;;37.58;18.08;;;;;;;;;;5126576;28;20081;-68
2021/11/20 00:49:17;;;;;;;35.42;17.27;;;;;;;;;;5103729;28;20051;-68
2021/11/20 00:51:43;;;;;;;44.05;18.10;;;;;;;;;;5105133;28;20060;-68
2021/11/20 00:54:10;;;;;;;35.72;15.90;;;;;;;;;;5104739;28;20052;-68
2021/11/20 00:56:36;;;;;;;38.35;17.77;;;;;;;;;;5105962;28;20051;-67
2021/11/20 00:59:03;;;;;;;44.70;17.17;;;;;;;;;;5100301;28;20142;-67
2021/11/20 01:01:32;;;;;;;33.80;15.43;;;;;;;;;;5094890;28;20048;-67
2021/11/20 01:03:58;;;;;;;41.17;16.27;;;;;;;;;;5104957;28;20044;-68
2021/11/20 01:06:25;;;;;;;38.13;16.42;;;;;;;;;;5104721;28;20048;-67
2021/11/20 01:08:52;;;;;;;34.67;17.30;;;;;;;;;;5102531;28;20040;-67
2021/11/20 01:11:21;;;;;;;30.58;14.75;;;;;;;;;;5104515;28;20048;-67
2021/11/20 01:13:47;;;;;;;40.92;15.95;;;;;;;;;;5106317;28;20074;-67
2021/11/20 01:16:14;;;;;;;37.40;16.80;;;;;;;;;;5100711;28;20516;-67
2021/11/20 01:18:41;;;;;;;36.50;16.65;;;;;;;;;;5095349;28;20044;-67
2021/11/20 01:21:07;;;;;;;38.38;16.10;;;;;;;;;;5102800;28;20047;-68
2021/11/20 01:23:34;;;;;;;34.72;16.13;;;;;;;;;;5098562;28;20112;-67
2021/11/20 01:26:00;;;;;;;33.88;14.65;;;;;;;;;;5099072;28;20104;-67
2021/11/20 01:28:27;;;;;;;28.83;14.70;;;;;;;;;;5105399;28;20484;-67
2021/11/20 01:30:54;;;;;;;38.65;16.52;;;;;;;;;;5104565;28;20040;-67
2021/11/20 01:33:20;;;;;;;38.67;16.63;;;;;;;;;;5090819;28;20048;-67
2021/11/20 01:35:46;;;;;;;37.47;16.20;;;;;;;;;;5105513;28;20099;-67
2021/11/20 01:38:12;;;;;;;35.38;15.48;;;;;;;;;;5101934;28;20135;-67
2021/11/20 01:40:39;;;;;;;39.30;14.95;;;;;;;;;;5091509;28;20048;-67
2021/11/20 01:43:06;;;;;;;28.23;15.63;;;;;;;;;;5105797;28;20040;-67
2021/11/20 01:45:52;;;;;;;33.38;15.02;;;;;;;;;;5104335;28;20090;-67
2021/11/20 01:48:27;;;;;;;34.42;15.05;;;;;;;;;;5095550;28;20044;-68
2021/11/20 01:50:56;;;;;;;31.40;14.50;;;;;;;;;;5097444;28;20125;-67
2021/11/20 01:53:28;;;;;;;33.67;15.18;;;;;;;;;;5087026;28;20054;-67
2021/11/20 01:55:57;;;;;;;38.30;16.85;;;;;;;;;;5091521;28;20036;-68
2021/11/20 01:58:28;;;;;;;32.47;15.63;;;;;;;;;;5117169;28;20078;-68
2021/11/20 02:01:13;;;;;;;33.38;16.27;;;;;;;;;;5119533;28;20044;-67
2021/11/20 02:03:51;;;;;;;29.90;15.15;;;;;;;;;;5101478;28;20059;-68
2021/11/20 02:06:28;;;;;;;37.95;15.82;;;;;;;;;;5125924;28;20043;-67
2021/11/20 02:09:06;;;;;;;33.40;16.27;;;;;;;;;;5107337;28;20054;-67
2021/11/20 02:11:41;;;;;;;44.50;16.70;;;;;;;;;;5103777;28;20055;-67
2021/11/20 02:14:09;;;;;;;33.63;15.35;;;;;;;;;;5106960;28;20081;-68
2021/11/20 02:16:38;;;;;;;28.27;15.38;;;;;;;;;;5106446;28;20048;-67
2021/11/20 02:19:05;;;;;;;37.95;14.60;;;;;;;;;;5120240;28;20051;-67
2021/11/20 02:21:46;;;;;;;30.15;14.18;;;;;;;;;;5124981;28;20047;-67
2021/11/20 02:24:12;;;;;;;27.90;14.63;;;;;;;;;;5106475;28;20051;-67
2021/11/20 02:26:38;;;;;;;28.08;15.55;;;;;;;;;;5123184;28;20039;-67
2021/11/20 02:29:06;;;;;;;34.03;15.85;;;;;;;;;;5122968;28;20126;-67
2021/11/20 02:31:35;;;;;;;29.65;15.80;;;;;;;;;;5124756;28;20044;-67
2021/11/20 02:34:01;;;;;;;31.10;17.13;;;;;;;;;;5124690;28;20053;-68
2021/11/20 02:36:27;;;;;;;26.60;15.40;;;;;;;;;;5106675;28;20101;-67
2021/11/20 02:39:05;;;;;;;34.13;16.55;;;;;;;;;;5106529;28;20133;-68
2021/11/20 02:41:33;;;;;;;30.25;14.20;;;;;;;;;;5122049;28;20478;-68
2021/11/20 02:44:01;;;;;;;35.08;15.30;;;;;;;;;;5111230;28;20444;-68
2021/11/20 02:46:29;;;;;;;34.45;16.42;;;;;;;;;;5106114;28;20051;-68
2021/11/20 02:48:56;;;;;;;33.88;15.82;;;;;;;;;;5122967;28;20054;-68
2021/11/20 02:51:28;;;;;;;31.50;15.60;;;;;;;;;;5102648;28;20056;-68
2021/11/20 02:57:27;;;;;;;37.90;16.08;;;;;;;;;;5088155;28;20165;-68
2021/11/20 02:59:53;;;;;;;25.02;13.05;;;;;;;;;;5102754;28;20039;-68
2021/11/20 03:02:19;;;;;;;29.10;14.65;;;;;;;;;;5093930;28;20045;-68
2021/11/20 03:04:45;;;;;;;29.73;15.15;;;;;;;;;;5098464;28;20102;-68
2021/11/20 03:07:12;;;;;;;28.65;15.25;;;;;;;;;;5104399;28;20051;-68
2021/11/20 03:09:38;;;;;;;30.58;15.00;;;;;;;;;;5100587;28;20123;-67
2021/11/20 03:12:07;;;;;;;27.10;13.27;;;;;;;;;;5089244;28;20538;-68
2021/11/20 03:14:33;;;;;;;33.00;14.68;;;;;;;;;;5102346;28;20040;-68
2021/11/20 03:17:00;;;;;;;21.98;13.10;;;;;;;;;;5103780;28;20044;-68
2021/11/20 03:19:28;;;;;;;29.67;14.93;;;;;;;;;;5103710;28;20040;-66
2021/11/20 03:21:57;;;;;;;28.45;14.20;;;;;;;;;;5103965;28;20042;-68
2021/11/20 03:24:24;;;;;;;29.75;15.05;;;;;;;;;;5094343;28;20040;-68
2021/11/20 03:26:50;;;;;;;25.70;14.10;;;;;;;;;;5089128;28;20040;-68
2021/11/20 03:29:17;;;;;;;32.00;15.55;;;;;;;;;;5103922;28;20107;-68
2021/11/20 03:31:43;;;;;;;44.63;14.55;;;;;;;;;;5100101;28;20499;-68
2021/11/20 03:34:09;;;;;;;27.70;13.75;;;;;;;;;;5102648;28;20052;-68
2021/11/20 03:36:36;;;;;;;28.77;14.30;;;;;;;;;;5102657;28;20048;-68
2021/11/20 03:39:03;;;;;;;28.85;14.40;;;;;;;;;;5101028;28;20044;-68
2021/11/20 03:41:30;;;;;;;26.13;13.63;;;;;;;;;;5094333;28;20055;-68
2021/11/20 03:43:56;;;;;;;27.95;14.90;;;;;;;;;;5103375;28;20044;-67
2021/11/20 03:46:22;;;;;;;28.73;13.93;;;;;;;;;;5103316;28;20105;-67
2021/11/20 03:48:48;;;;;;;30.00;14.85;;;;;;;;;;5089232;28;20078;-67
2021/11/20 03:51:14;;;;;;;33.08;16.17;;;;;;;;;;5116597;28;20058;-67
2021/11/20 03:53:40;;;;;;;19.63;13.68;;;;;;;;;;5123868;28;20074;-67
2021/11/20 03:56:06;;;;;;;23.75;12.35;;;;;;;;;;5123050;28;20048;-68
2021/11/20 03:58:33;;;;;;;23.58;14.70;;;;;;;;;;5123974;28;20094;-67
2021/11/20 04:01:10;;;;;;;28.15;14.25;;;;;;;;;;5124071;28;20040;-67
2021/11/20 04:03:39;;;;;;;24.38;13.55;;;;;;;;;;5077665;28;20055;-68
2021/11/20 04:06:12;;;;;;;26.90;14.77;;;;;;;;;;5121554;28;20051;-67
2021/11/20 04:08:39;;;;;;;24.00;12.98;;;;;;;;;;5121602;28;20039;-68
2021/11/20 04:11:05;;;;;;;28.10;14.57;;;;;;;;;;5121409;28;20043;-68
2021/11/20 04:13:31;;;;;;;23.05;13.63;;;;;;;;;;5103467;28;20048;-68
2021/11/20 04:15:57;;;;;;;26.52;13.85;;;;;;;;;;5117852;28;20043;-67
2021/11/20 04:18:23;;;;;;;24.48;13.48;;;;;;;;;;5116706;28;20040;-67
2021/11/20 04:20:50;;;;;;;26.00;14.50;;;;;;;;;;5097534;28;20043;-67
2021/11/20 04:23:16;;;;;;;24.92;14.63;;;;;;;;;;5106663;28;20384;-68
2021/11/20 04:25:43;;;;;;;28.77;14.93;;;;;;;;;;5108693;28;20044;-67
2021/11/20 04:28:09;;;;;;;26.65;14.13;;;;;;;;;;5127341;28;20073;-67
2021/11/20 04:30:35;;;;;;;29.80;14.75;;;;;;;;;;5109131;28;20539;-67
2021/11/20 04:33:01;;;;;;;29.05;14.70;;;;;;;;;;5124675;28;20130;-67
2021/11/20 04:35:27;;;;;;;28.80;15.48;;;;;;;;;;5106634;28;20040;-67
2021/11/20 04:37:54;;;;;;;27.55;14.20;;;;;;;;;;5119908;28;20058;-67
2021/11/20 04:40:21;;;;;;;22.67;14.27;;;;;;;;;;5077453;28;20067;-67
2021/11/20 04:42:47;;;;;;;23.17;13.90;;;;;;;;;;5127235;28;20036;-67
2021/11/20 04:45:14;;;;;;;26.15;15.25;;;;;;;;;;5125123;28;20082;-67
2021/11/20 04:47:40;;;;;;;29.58;14.73;;;;;;;;;;5090289;28;20126;-67
2021/11/20 04:50:08;;;;;;;30.48;14.82;;;;;;;;;;5089491;28;20055;-66
2021/11/20 04:52:35;;;;;;;32.03;15.38;;;;;;;;;;5109041;28;20055;-67
2021/11/20 04:55:01;;;;;;;22.45;12.00;;;;;;;;;;5126954;28;20054;-67
2021/11/20 04:57:28;;;;;;;22.05;14.57;;;;;;;;;;5119476;28;20074;-67
2021/11/20 04:59:54;;;;;;;27.60;14.40;;;;;;;;;;5127002;28;20047;-67
2021/11/20 05:02:20;;;;;;;34.05;14.52;;;;;;;;;;5126498;28;20327;-67
2021/11/20 05:04:46;;;;;;;24.92;14.15;;;;;;;;;;5125207;28;20103;-67
2021/11/20 05:07:12;;;;;;;27.00;14.93;;;;;;;;;;5112291;28;20075;-67
2021/11/20 05:09:38;;;;;;;23.73;14.35;;;;;;;;;;5108681;28;20040;-67
2021/11/20 05:12:07;;;;;;;20.15;12.07;;;;;;;;;;5125743;28;20051;-67
2021/11/20 05:14:34;;;;;;;26.50;14.93;;;;;;;;;;5093707;28;20054;-67
2021/11/20 05:17:00;;;;;;;31.67;15.32;;;;;;;;;;5107598;28;20047;-67
2021/11/20 05:19:26;;;;;;;30.45;15.15;;;;;;;;;;5124059;28;20183;-67
2021/11/20 05:21:52;;;;;;;31.77;15.65;;;;;;;;;;5094879;28;20075;-68
2021/11/20 05:24:18;;;;;;;31.45;15.00;;;;;;;;;;5108222;28;20055;-67
2021/11/20 05:26:44;;;;;;;25.48;15.68;;;;;;;;;;5111299;28;20047;-68
2021/11/20 05:29:28;;;;;;;27.90;15.52;;;;;;;;;;5108117;28;20525;-67
2021/11/20 05:31:55;;;;;;;30.25;15.27;;;;;;;;;;5107252;28;20067;-67
2021/11/20 05:34:21;;;;;;;25.60;14.38;;;;;;;;;;5101082;28;20502;-67
2021/11/20 05:36:48;;;;;;;24.92;14.52;;;;;;;;;;5125797;28;20067;-67
2021/11/20 05:39:14;;;;;;;32.10;15.90;;;;;;;;;;5126609;28;20047;-67
2021/11/20 05:41:40;;;;;;;24.50;14.18;;;;;;;;;;5105603;28;20046;-67
2021/11/20 05:44:07;;;;;;;28.60;16.20;;;;;;;;;;5125936;28;20044;-67
2021/11/20 05:46:33;;;;;;;31.98;16.38;;;;;;;;;;5092979;28;20055;-67
2021/11/20 05:49:00;;;;;;;28.85;15.52;;;;;;;;;;5107664;28;20050;-67
2021/11/20 05:51:26;;;;;;;25.27;15.25;;;;;;;;;;5125651;28;20063;-67
2021/11/20 05:53:52;;;;;;;25.33;14.55;;;;;;;;;;5125890;28;20103;-67
2021/11/20 05:56:18;;;;;;;32.63;16.13;;;;;;;;;;5098663;28;20050;-67
2021/11/20 05:58:44;;;;;;;27.98;14.25;;;;;;;;;;5103128;28;20044;-66
2021/11/20 06:01:12;;;;;;;26.40;15.88;;;;;;;;;;5082238;28;20044;-66
2021/11/20 06:03:39;;;;;;;22.02;15.38;;;;;;;;;;5119879;28;20044;-67
2021/11/20 06:06:06;;;;;;;25.33;15.73;;;;;;;;;;5100859;28;20567;-66
2021/11/20 06:08:32;;;;;;;25.55;14.68;;;;;;;;;;5100265;28;20403;-68
2021/11/20 06:11:00;;;;;;;25.77;15.77;;;;;;;;;;5118496;28;20040;-67
2021/11/20 06:13:26;;;;;;;22.92;14.05;;;;;;;;;;5124929;28;20042;-67
2021/11/20 06:15:53;;;;;;;25.85;16.20;;;;;;;;;;5089020;28;20058;-67
2021/11/20 06:18:19;;;;;;;28.75;15.40;;;;;;;;;;5086928;28;20052;-67
2021/11/20 06:20:45;;;;;;;26.77;16.65;;;;;;;;;;5116738;28;20044;-68
2021/11/20 06:23:12;;;;;;;33.97;17.33;;;;;;;;;;5125138;28;20044;-67
2021/11/20 06:25:38;;;;;;;32.63;16.35;;;;;;;;;;5097471;28;20048;-67
2021/11/20 06:28:05;;;;;;;23.52;15.68;;;;;;;;;;5103440;28;20095;-68
2021/11/20 06:30:32;;;;;;;32.20;17.58;;;;;;;;;;5124957;28;20040;-67
2021/11/20 06:32:59;;;;;;;24.10;16.52;;;;;;;;;;5105912;28;20086;-67
2021/11/20 06:35:27;;;;;;;29.00;16.77;;;;;;;;;;5100138;28;20054;-68
2021/11/20 06:37:54;;;;;;;31.17;16.88;;;;;;;;;;5117544;28;20304;-68
2021/11/20 06:40:23;;;;;;;32.40;16.90;;;;;;;;;;5110493;28;20067;-66
2021/11/20 06:42:49;;;;;;;29.08;17.23;;;;;;;;;;5106498;28;20302;-67
2021/11/20 06:45:19;;;;;;;29.23;16.52;;;;;;;;;;5112888;28;20035;-67
2021/11/20 06:47:45;;;;;;;26.95;16.83;;;;;;;;;;5113241;28;20047;-67
2021/11/20 06:50:11;;;;;;;34.15;17.02;;;;;;;;;;5101120;28;20130;-67
2021/11/20 06:52:40;;;;;;;23.25;14.85;;;;;;;;;;5106457;28;20054;-67
2021/11/20 06:55:07;;;;;;;23.00;14.43;;;;;;;;;;5105966;28;20058;-67
2021/11/20 06:57:49;;;;;;;22.35;15.98;;;;;;;;;;5124640;28;20555;-67
2021/11/20 07:00:26;;;;;;;26.80;14.25;;;;;;;;;;5112281;28;20052;-67
2021/11/20 07:02:55;;;;;;;27.73;17.08;;;;;;;;;;5124600;28;20051;-67
2021/11/20 07:05:21;;;;;;;26.27;15.07;;;;;;;;;;5110064;28;20044;-67
2021/11/20 07:07:47;;;;;;;26.73;15.98;;;;;;;;;;5106167;28;20078;-67
2021/11/20 07:10:16;;;;;;;26.67;15.48;;;;;;;;;;5124091;28;20061;-67
2021/11/20 07:12:42;;;;;;;23.27;15.05;;;;;;;;;;5105651;28;20169;-67
2021/11/20 07:15:09;;;;;;;27.50;16.30;;;;;;;;;;5106426;28;20084;-67
2021/11/20 07:17:35;;;;;;;25.67;16.27;;;;;;;;;;5120766;28;20038;-68
2021/11/20 07:20:01;;;;;;;26.15;16.33;;;;;;;;;;5110394;28;20044;-68
2021/11/20 07:22:27;;;;;;;27.20;17.35;;;;;;;;;;5097378;28;20139;-68
2021/11/20 07:24:53;;;;;;;22.30;15.13;;;;;;;;;;5090823;28;20107;-67
2021/11/20 07:27:20;;;;;;;23.17;16.42;;;;;;;;;;5114493;28;20044;-67
2021/11/20 07:29:46;;;;;;;31.27;17.23;;;;;;;;;;5119272;28;20482;-70
2021/11/20 07:32:12;;;;;;;25.48;16.30;;;;;;;;;;5112299;28;20340;-69
2021/11/20 07:34:38;;;;;;;25.15;16.25;;;;;;;;;;5115706;28;20066;-66
2021/11/20 07:37:05;;;;;;;19.67;13.52;;;;;;;;;;5095920;28;20044;-68
2021/11/20 07:39:31;;;;;;;16.95;13.85;;;;;;;;;;5093110;28;20040;-68
2021/11/20 07:41:57;;;;;;;22.75;15.02;;;;;;;;;;5091524;28;20107;-67
2021/11/20 07:44:24;;;;;;;21.63;15.30;;;;;;;;;;5109875;28;20375;-68
2021/11/20 07:46:50;;;;;;;26.58;16.02;;;;;;;;;;5092901;28;20031;-67
2021/11/20 07:49:16;;;;;;;21.08;14.98;;;;;;;;;;5117639;28;20074;-68
2021/11/20 07:51:43;;;;;;;24.15;14.98;;;;;;;;;;5095984;28;21015;-68
2021/11/20 07:54:10;;;;;;;19.45;14.40;;;;;;;;;;5096976;28;20052;-68
2021/11/20 07:56:41;;;;;;;24.08;15.05;;;;;;;;;;5093695;28;20040;-67
2021/11/20 07:59:08;;;;;;;22.40;13.50;;;;;;;;;;5098411;28;20458;-67
2021/11/20 08:01:34;;;;;;;24.87;14.97;;;;;;;;;;5097585;28;20119;-68
2021/11/20 08:04:00;;;;;;;21.83;14.10;;;;;;;;;;5101384;28;20185;-67
2021/11/20 08:06:26;;;;;;;16.92;13.38;;;;;;;;;;5093542;28;20488;-66
2021/11/20 08:08:53;;;;;;;21.15;13.32;;;;;;;;;;5094108;28;20043;-67
2021/11/20 08:11:19;;;;;;;21.95;13.68;;;;;;;;;;5090815;28;20460;-71
2021/11/20 08:13:45;;;;;;;22.88;14.00;;;;;;;;;;5105891;28;20043;-65
2021/11/20 08:16:11;;;;;;;20.92;13.38;;;;;;;;;;5099158;28;20052;-75
2021/11/20 08:18:37;;;;;;;25.27;16.35;;;;;;;;;;5097543;28;20067;-74
2021/11/20 08:21:04;;;;;;;21.40;14.25;;;;;;;;;;5101357;28;20052;-73
2021/11/20 08:23:31;;;;;;;25.10;15.15;;;;;;;;;;5096671;28;20071;-73
2021/11/20 08:25:57;;;;;;;19.00;11.80;;;;;;;;;;5092582;28;20036;-73
2021/11/20 08:28:26;;;;;;;19.90;15.07;;;;;;;;;;5095473;28;20099;-73
2021/11/20 08:30:52;;;;;;;23.00;15.00;;;;;;;;;;5095373;28;20078;-74
2021/11/20 08:33:18;;;;;;;20.58;14.88;;;;;;;;;;5096495;28;20055;-73
2021/11/20 08:35:45;;;;;;;20.23;14.20;;;;;;;;;;5095099;28;20054;-73
2021/11/20 08:38:11;;;;;;;21.80;15.38;;;;;;;;;;5098894;28;20525;-65
2021/11/20 08:40:38;;;;;;;18.33;14.40;;;;;;;;;;5093796;28;20051;-64
2021/11/20 08:43:05;;;;;;;20.88;14.70;;;;;;;;;;5093994;28;20045;-67
2021/11/20 08:45:36;;;;;;;25.30;16.92;;;;;;;;;;5092705;28;20048;-71
2021/11/20 08:48:02;;;;;;;25.70;16.52;;;;;;;;;;5090573;28;20613;-70
2021/11/20 08:50:36;;;;;;;24.48;17.73;;;;;;;;;;5106115;28;20436;-71
2021/11/20 08:53:02;;;;;;;22.67;15.98;;;;;;;;;;5108680;28;20135;-71
2021/11/20 08:55:29;;;;;;;22.25;16.42;;;;;;;;;;5093372;28;20110;-71
2021/11/20 08:57:55;;;;;;;22.63;16.13;;;;;;;;;;5125100;28;20051;-71
2021/11/20 09:00:29;;;;;;;23.65;17.77;;;;;;;;;;5124694;28;20050;-71
2021/11/20 09:02:59;;;;;;;24.30;16.73;;;;;;;;;;5117579;28;20032;-71
2021/11/20 09:05:29;;;;;;;23.92;17.20;;;;;;;;;;5103282;28;20066;-72
2021/11/20 09:08:24;;;;;;;23.50;17.75;;;;;;;;;;5106769;28;20139;-71
2021/11/20 09:10:53;;;;;;;25.38;17.90;;;;;;;;;;5021783;28;20065;-71
2021/11/20 09:13:25;;;;;;;29.58;18.30;;;;;;;;;;5004065;28;20057;-71
2021/11/20 09:15:59;;;;;;;28.58;17.95;;;;;;;;;;5004870;28;20065;-71
2021/11/20 09:18:25;;;;;;;27.33;17.83;;;;;;;;;;5007477;28;20041;-71
2021/11/20 09:20:52;;;;;;;22.42;18.30;;;;;;;;;;4997913;28;20078;-71
2021/11/20 09:23:19;;;;;;;25.88;19.13;;;;;;;;;;5022548;28;20053;-71
2021/11/20 09:25:46;;;;;;;21.85;17.75;;;;;;;;;;5000838;28;20049;-71
2021/11/20 09:28:12;;;;;;;24.25;18.20;;;;;;;;;;5022941;28;20134;-71
2021/11/20 09:30:41;;;;;;;24.65;18.73;;;;;;;;;;5006515;28;20109;-71
2021/11/20 09:33:07;;;;;;;28.15;19.08;;;;;;;;;;5012183;28;20183;-71
2021/11/20 09:35:33;;;;;;;23.33;17.70;;;;;;;;;;4994086;28;20510;-71
2021/11/20 09:37:59;;;;;;;24.13;16.65;;;;;;;;;;4990099;28;20098;-71
2021/11/20 09:40:28;;;;;;;26.02;19.73;;;;;;;;;;5014364;28;20193;-70
2021/11/20 09:42:56;;;;;;;27.25;19.10;;;;;;;;;;5007549;28;20214;-71
2021/11/20 09:45:22;;;;;;;;;;;;;;;;;;5004500;28;20096;-71
2021/11/20 09:47:49;;;;;;;26.75;19.98;;;;;;;;;;5075491;28;20061;-71
2021/11/20 09:50:31;;;;;;;26.27;18.95;;;;;;;;;;5100466;28;20032;-72
2021/11/20 09:52:57;;;;;;;28.42;18.67;;;;;;;;;;5119636;28;20044;-67
2021/11/20 09:55:25;;;;;;;27.80;19.27;;;;;;;;;;5092752;28;20089;-66
2021/11/20 09:58:11;;;;;;;28.20;20.13;;;;;;;;;;5116525;28;20075;-66
2021/11/20 10:01:04;;;;;;;26.73;19.95;;;;;;;;;;5090723;28;20089;-67
2021/11/20 10:03:46;;;;;;;26.20;18.40;;;;;;;;;;5095419;28;20124;-66
2021/11/20 10:06:18;;;;;;;31.63;19.25;;;;;;;;;;5095095;28;20199;-66
2021/11/20 10:08:45;;;;;;;25.77;20.15;;;;;;;;;;5096555;28;20073;-69
2021/11/20 10:11:22;;;;;;;25.48;18.65;;;;;;;;;;5094176;28;20062;-66
2021/11/20 10:14:00;;;;;;;23.10;17.75;;;;;;;;;;5111379;28;20047;-67
2021/11/20 10:16:47;;;;;;;28.70;19.70;;;;;;;;;;5112037;28;20044;-68
2021/11/20 10:19:26;;;;;;;28.08;19.63;;;;;;;;;;5096444;28;20054;-65
2021/11/20 10:22:12;;;;;;;27.10;20.08;;;;;;;;;;5116122;28;20032;-65
2021/11/20 10:24:52;;;;;;;29.02;19.77;;;;;;;;;;5119171;28;20035;-65
2021/11/20 10:27:31;;;;;;;26.38;20.13;;;;;;;;;;5097365;28;20040;-75
2021/11/20 10:30:16;;;;;;;27.88;21.13;;;;;;;;;;5095158;28;20859;-76
2021/11/20 10:33:05;;;;;;;29.23;21.17;;;;;;;;;;5093404;28;20077;-72
2021/11/20 10:35:37;;;;;;;27.40;19.90;;;;;;;;;;5098656;28;20054;-67
2021/11/20 10:38:12;;;;;;;24.63;18.90;;;;;;;;;;5122904;28;20067;-66
2021/11/20 10:40:49;;;;;;;27.73;20.77;;;;;;;;;;5118926;28;20040;-66
2021/11/20 10:43:18;;;;;;;31.95;20.30;;;;;;;;;;5095443;28;20035;-66
2021/11/20 10:45:54;;;;;;;27.73;20.92;;;;;;;;;;5113931;28;20043;-70
2021/11/20 10:48:26;;;;;;;26.95;21.05;;;;;;;;;;5113743;28;20052;-69
2021/11/20 10:51:11;;;;;;;32.20;21.77;;;;;;;;;;5096610;28;20055;-69
2021/11/20 10:53:50;;;;;;;26.08;20.75;;;;;;;;;;5094414;28;20077;-69
2021/11/20 10:56:24;;;;;;;26.05;17.95;;;;;;;;;;5109182;28;20043;-67
2021/11/20 10:59:04;;;;;;;27.05;21.23;;;;;;;;;;5117660;28;20054;-65
2021/11/20 11:01:42;;;;;;;28.63;21.77;;;;;;;;;;5112880;28;20039;-66
2021/11/20 11:04:08;;;;;;;26.85;20.45;;;;;;;;;;5108854;28;20050;-66
2021/11/20 11:06:46;;;;;;;29.88;22.05;;;;;;;;;;5111840;28;20040;-67
2021/11/20 11:09:18;;;;;;;29.20;22.50;;;;;;;;;;5118136;28;20043;-68
2021/11/20 11:11:52;;;;;;;29.52;21.15;;;;;;;;;;5096170;28;20074;-67
2021/11/20 11:14:24;;;;;;;26.60;20.65;;;;;;;;;;5110299;28;20071;-71
2021/11/20 11:16:54;;;;;;;28.73;22.30;;;;;;;;;;5092075;28;20275;-69
2021/11/20 11:19:23;;;;;;;28.77;21.67;;;;;;;;;;5111630;28;20107;-68
2021/11/20 11:21:55;;;;;;;32.30;23.25;;;;;;;;;;5116940;28;20036;-68
2021/11/20 11:24:36;;;;;;;27.52;21.02;;;;;;;;;;5097277;28;20055;-67
2021/11/20 11:27:04;;;;;;;31.20;22.48;;;;;;;;;;5100693;28;20071;-68
2021/11/20 11:29:36;;;;;;;28.92;22.33;;;;;;;;;;5089518;28;20047;-68
2021/11/20 11:32:03;;;;;;;35.58;24.08;;;;;;;;;;5096286;28;20056;-79
2021/11/20 11:34:46;;;;;;;37.20;22.95;;;;;;;;;;5118650;28;20039;-70
2021/11/20 11:37:20;;;;;;;35.97;24.92;;;;;;;;;;5099819;28;20111;-70
2021/11/20 11:39:58;;;;;;;37.00;25.92;;;;;;;;;;5116593;28;20040;-65
2021/11/20 11:42:24;;;;;;;34.92;23.50;;;;;;;;;;5121583;28;20040;-64
2021/11/20 11:44:53;;;;;;;42.90;27.67;;;;;;;;;;5123815;28;20035;-64
2021/11/20 11:47:19;;;;;;;31.73;23.27;;;;;;;;;;5101470;28;20059;-62
2021/11/20 11:49:55;;;;;;;31.70;23.40;;;;;;;;;;5123751;28;20044;-64
2021/11/20 11:52:21;;;;;;;35.13;23.88;;;;;;;;;;5112756;28;20043;-66
2021/11/20 11:55:04;;;;;;;34.58;24.48;;;;;;;;;;5118066;28;20063;-65
2021/11/20 11:57:49;;;;;;;39.47;24.75;;;;;;;;;;5101248;28;20051;-69
2021/11/20 12:00:21;;;;;;;48.60;29.38;;;;;;;;;;5113207;28;20111;-66
2021/11/20 12:02:52;;;;;;;40.65;26.88;;;;;;;;;;5078300;28;20078;-68
2021/11/20 12:05:24;;;;;;;45.03;29.15;;;;;;;;;;5102503;28;20109;-67
2021/11/20 12:07:50;;;;;;;44.85;28.00;;;;;;;;;;5120258;28;20027;-71
2021/11/20 12:10:22;;;;;;;42.35;27.77;;;;;;;;;;5120217;28;20051;-74
2021/11/20 12:13:15;;;;;;;48.60;31.23;;;;;;;;;;5114867;28;20124;-74
2021/11/20 12:15:43;;;;;;;42.33;27.17;;;;;;;;;;5113374;28;20474;-75
2021/11/20 12:18:12;;;;;;;45.13;29.13;;;;;;;;;;5101570;28;20064;-64
2021/11/20 12:20:53;;;;;;;50.00;30.48;;;;;;;;;;5099698;28;20459;-62
2021/11/20 12:23:27;;;;;;;45.85;29.48;;;;;;;;;;5110625;28;20119;-65
2021/11/20 12:25:53;;;;;;;49.78;30.83;;;;;;;;;;5116880;28;20044;-65
2021/11/20 12:28:31;;;;;;;48.97;30.35;;;;;;;;;;5098280;28;20096;-68
2021/11/20 12:31:06;;;;;;;48.90;30.08;;;;;;;;;;5115237;28;20056;-71
2021/11/20 12:33:32;;;;;;;45.85;28.65;;;;;;;;;;5115535;28;20044;-71
2021/11/20 12:36:16;;;;;;;42.28;27.98;;;;;;;;;;5116708;28;20110;-70
2021/11/20 12:38:53;;;;;;;39.53;25.73;;;;;;;;;;5115032;28;20043;-66
2021/11/20 12:41:38;;;;;;;39.30;26.38;;;;;;;;;;5102334;28;20063;-66
2021/11/20 12:44:24;;;;;;;41.97;28.42;;;;;;;;;;5099356;28;20075;-71
2021/11/20 12:47:00;;;;;;;37.40;24.85;;;;;;;;;;5075495;28;20036;-68
2021/11/20 12:49:29;;;;;;;36.00;25.73;;;;;;;;;;5102208;28;20056;-69
2021/11/20 12:52:14;;;;;;;41.30;26.85;;;;;;;;;;5119588;28;20058;-69
2021/11/20 12:54:40;;;;;;;38.80;25.92;;;;;;;;;;5099208;28;20052;-69
2021/11/20 12:57:18;;;;;;;40.13;27.27;;;;;;;;;;5118647;28;20485;-69
2021/11/20 12:59:55;;;;;;;37.92;25.75;;;;;;;;;;5119015;28;20039;-70
2021/11/20 13:02:47;;;;;;;35.20;23.25;;;;;;;;;;5121054;28;20058;-69
2021/11/20 13:05:38;;;;;;;42.42;25.83;;;;;;;;;;5096660;28;20055;-69
2021/11/20 13:08:04;;;;;;;43.53;27.15;;;;;;;;;;5081454;28;20544;-70
2021/11/20 13:10:30;;;;;;;41.20;26.90;;;;;;;;;;5114506;28;20075;-70
2021/11/20 13:12:59;;;;;;;48.65;31.40;;;;;;;;;;5101837;28;20042;-69
2021/11/20 13:15:48;;;;;;;38.47;24.58;;;;;;;;;;5120345;28;20040;-69
2021/11/20 13:18:17;;;;;;;44.10;26.77;;;;;;;;;;5071513;28;20130;-69
2021/11/20 13:20:53;;;;;;;35.42;23.92;;;;;;;;;;5122461;28;20047;-69
2021/11/20 13:23:21;;;;;;;42.83;26.27;;;;;;;;;;5105301;28;20094;-70
2021/11/20 13:26:05;;;;;;;38.22;24.50;;;;;;;;;;5121241;28;20035;-69
2021/11/20 13:28:40;;;;;;;39.42;25.30;;;;;;;;;;5118417;28;20048;-69
2021/11/20 13:31:07;;;;;;;39.58;25.50;;;;;;;;;;5121141;28;20071;-69
2021/11/20 13:33:33;;;;;;;34.08;22.38;;;;;;;;;;5104028;28;20463;-69
2021/11/20 13:36:01;;;;;;;36.22;23.63;;;;;;;;;;5100431;28;20058;-69
2021/11/20 13:38:27;;;;;;;37.67;24.08;;;;;;;;;;5099037;28;20052;-69
2021/11/20 13:40:54;;;;;;;37.75;24.50;;;;;;;;;;5111038;28;20047;-69
2021/11/20 13:43:25;;;;;;;39.30;24.70;;;;;;;;;;5125146;28;20123;-69
2021/11/20 13:45:54;;;;;;;41.50;25.08;;;;;;;;;;5080439;28;20048;-69
2021/11/20 13:48:21;;;;;;;35.40;21.98;;;;;;;;;;5116259;28;20043;-67
2021/11/20 13:50:48;;;;;;;37.53;25.15;;;;;;;;;;5093163;28;20468;-67
2021/11/20 13:53:16;;;;;;;41.70;23.83;;;;;;;;;;5118919;28;20054;-68
2021/11/20 13:55:46;;;;;;;36.13;22.77;;;;;;;;;;5113157;28;20047;-66
2021/11/20 13:58:41;;;;;;;42.28;26.05;;;;;;;;;;5113785;28;20046;-67
2021/11/20 14:01:13;;;;;;;36.88;23.08;;;;;;;;;;5111017;28;20043;-67
2021/11/20 14:03:50;;;;;;;34.28;22.85;;;;;;;;;;5105429;28;20050;-67
2021/11/20 14:06:16;;;;;;;35.55;19.88;;;;;;;;;;5099283;28;20163;-67
2021/11/20 14:08:45;;;;;;;37.28;22.67;;;;;;;;;;5117415;28;20044;-67
2021/11/20 14:11:15;;;;;;;34.45;18.75;;;;;;;;;;5119830;28;20039;-67
2021/11/20 14:13:42;;;;;;;41.55;24.33;;;;;;;;;;5096321;28;20082;-67
2021/11/20 14:16:08;;;;;;;39.17;24.07;;;;;;;;;;5101381;28;20074;-67
2021/11/20 14:18:47;;;;;;;34.17;22.60;;;;;;;;;;5122679;28;20043;-67
2021/11/20 14:21:16;;;;;;;31.10;19.02;;;;;;;;;;5115978;28;20043;-67
2021/11/20 14:23:52;;;;;;;36.67;21.67;;;;;;;;;;5121502;28;20047;-67
2021/11/20 14:26:18;;;;;;;29.83;18.80;;;;;;;;;;5111111;28;20095;-67
2021/11/20 14:28:46;;;;;;;30.33;18.90;;;;;;;;;;5118188;28;20061;-67
2021/11/20 14:31:23;;;;;;;30.10;19.30;;;;;;;;;;5111830;28;20052;-67
2021/11/20 14:33:50;;;;;;;27.95;17.52;;;;;;;;;;5092172;28;20040;-67
2021/11/20 14:36:16;;;;;;;33.95;20.40;;;;;;;;;;5111185;28;20044;-67
2021/11/20 14:38:50;;;;;;;24.02;15.90;;;;;;;;;;5113729;28;20043;-67